sensor_id;sensor_type;location;lat;lon;timestamp;P1;durP1;ratioP1;P2;durP2;ratioP2
36475;SDS011;56615;42.682;23.364;2023-02-15T00:01:05;51.00;;;30.33;;
36475;SDS011;56615;42.682;23.364;2023-02-15T00:03:31;53.42;;;31.52;;
36475;SDS011;56615;42.682;23.364;2023-02-15T00:05:57;50.90;;;31.15;;
36475;SDS011;56615;42.682;23.364;2023-02-15T00:08:23;53.25;;;32.75;;
36475;SDS011;56615;42.682;23.364;2023-02-15T00:10:48;53.88;;;31.88;;
36475;SDS011;56615;42.682;23.364;2023-02-15T00:13:14;54.95;;;32.45;;
36475;SDS011;56615;42.682;23.364;2023-02-15T00:15:39;52.65;;;31.70;;
36475;SDS011;56615;42.682;23.364;2023-02-15T00:18:04;52.92;;;32.40;;
36475;SDS011;56615;42.682;23.364;2023-02-15T00:20:30;54.55;;;32.25;;
36475;SDS011;56615;42.682;23.364;2023-02-15T00:22:56;54.08;;;33.40;;
36475;SDS011;56615;42.682;23.364;2023-02-15T00:25:21;53.53;;;31.08;;
36475;SDS011;56615;42.682;23.364;2023-02-15T00:27:46;53.08;;;32.35;;
36475;SDS011;56615;42.682;23.364;2023-02-15T00:30:12;52.08;;;31.83;;
36475;SDS011;56615;42.682;23.364;2023-02-15T00:32:37;53.28;;;32.03;;
36475;SDS011;56615;42.682;23.364;2023-02-15T00:35:03;52.20;;;30.88;;
36475;SDS011;56615;42.682;23.364;2023-02-15T00:37:29;54.00;;;32.08;;
36475;SDS011;56615;42.682;23.364;2023-02-15T00:39:54;54.88;;;32.20;;
36475;SDS011;56615;42.682;23.364;2023-02-15T00:42:20;55.38;;;32.13;;
36475;SDS011;56615;42.682;23.364;2023-02-15T00:44:47;56.08;;;31.85;;
36475;SDS011;56615;42.682;23.364;2023-02-15T00:47:12;55.15;;;32.63;;
36475;SDS011;56615;42.682;23.364;2023-02-15T00:49:37;51.75;;;31.17;;
36475;SDS011;56615;42.682;23.364;2023-02-15T00:52:03;51.05;;;31.30;;
36475;SDS011;56615;42.682;23.364;2023-02-15T00:54:28;50.08;;;30.98;;
36475;SDS011;56615;42.682;23.364;2023-02-15T00:56:54;54.60;;;32.13;;
36475;SDS011;56615;42.682;23.364;2023-02-15T00:59:19;55.05;;;30.85;;
36475;SDS011;56615;42.682;23.364;2023-02-15T01:01:44;50.78;;;30.67;;
36475;SDS011;56615;42.682;23.364;2023-02-15T01:04:10;49.67;;;29.38;;
36475;SDS011;56615;42.682;23.364;2023-02-15T01:06:35;50.65;;;31.33;;
36475;SDS011;56615;42.682;23.364;2023-02-15T01:09:01;50.45;;;31.05;;
36475;SDS011;56615;42.682;23.364;2023-02-15T01:11:27;49.72;;;29.73;;
36475;SDS011;56615;42.682;23.364;2023-02-15T01:13:53;48.03;;;30.35;;
36475;SDS011;56615;42.682;23.364;2023-02-15T01:16:20;49.80;;;29.60;;
36475;SDS011;56615;42.682;23.364;2023-02-15T01:18:47;49.63;;;29.70;;
36475;SDS011;56615;42.682;23.364;2023-02-15T01:21:15;50.28;;;30.10;;
36475;SDS011;56615;42.682;23.364;2023-02-15T01:23:42;48.60;;;29.30;;
36475;SDS011;56615;42.682;23.364;2023-02-15T01:26:08;48.00;;;29.52;;
36475;SDS011;56615;42.682;23.364;2023-02-15T01:28:34;48.13;;;29.00;;
36475;SDS011;56615;42.682;23.364;2023-02-15T01:31:03;47.38;;;29.17;;
36475;SDS011;56615;42.682;23.364;2023-02-15T01:33:30;50.50;;;30.00;;
36475;SDS011;56615;42.682;23.364;2023-02-15T01:35:55;48.35;;;29.67;;
36475;SDS011;56615;42.682;23.364;2023-02-15T01:38:22;50.53;;;29.80;;
36475;SDS011;56615;42.682;23.364;2023-02-15T01:40:50;49.17;;;29.08;;
36475;SDS011;56615;42.682;23.364;2023-02-15T01:43:18;51.58;;;30.55;;
36475;SDS011;56615;42.682;23.364;2023-02-15T01:45:45;48.33;;;29.80;;
36475;SDS011;56615;42.682;23.364;2023-02-15T01:51:06;49.17;;;29.35;;
36475;SDS011;56615;42.682;23.364;2023-02-15T01:53:35;48.97;;;29.00;;
36475;SDS011;56615;42.682;23.364;2023-02-15T01:56:11;47.55;;;28.77;;
36475;SDS011;56615;42.682;23.364;2023-02-15T01:58:40;49.13;;;28.88;;
36475;SDS011;56615;42.682;23.364;2023-02-15T02:01:07;48.38;;;29.13;;
36475;SDS011;56615;42.682;23.364;2023-02-15T02:06:26;47.47;;;29.15;;
36475;SDS011;56615;42.682;23.364;2023-02-15T02:08:52;45.58;;;28.65;;
36475;SDS011;56615;42.682;23.364;2023-02-15T02:11:18;46.17;;;28.67;;
36475;SDS011;56615;42.682;23.364;2023-02-15T02:13:45;48.20;;;28.75;;
36475;SDS011;56615;42.682;23.364;2023-02-15T02:16:20;50.22;;;30.15;;
36475;SDS011;56615;42.682;23.364;2023-02-15T02:35:26;47.58;;;28.23;;
36475;SDS011;56615;42.682;23.364;2023-02-15T02:38:03;46.92;;;28.40;;
36475;SDS011;56615;42.682;23.364;2023-02-15T02:40:40;48.38;;;28.95;;
36475;SDS011;56615;42.682;23.364;2023-02-15T02:43:29;45.45;;;28.27;;
36475;SDS011;56615;42.682;23.364;2023-02-15T02:46:00;44.30;;;27.38;;
36475;SDS011;56615;42.682;23.364;2023-02-15T02:48:35;49.33;;;28.85;;
36475;SDS011;56615;42.682;23.364;2023-02-15T02:51:01;48.65;;;27.48;;
36475;SDS011;56615;42.682;23.364;2023-02-15T02:53:27;46.75;;;28.63;;
36475;SDS011;56615;42.682;23.364;2023-02-15T03:01:01;45.28;;;28.42;;
36475;SDS011;56615;42.682;23.364;2023-02-15T03:03:33;45.25;;;27.45;;
36475;SDS011;56615;42.682;23.364;2023-02-15T03:06:03;46.03;;;28.58;;
36475;SDS011;56615;42.682;23.364;2023-02-15T03:08:41;43.55;;;26.80;;
36475;SDS011;56615;42.682;23.364;2023-02-15T03:11:08;44.35;;;27.00;;
36475;SDS011;56615;42.682;23.364;2023-02-15T03:13:34;45.75;;;27.63;;
36475;SDS011;56615;42.682;23.364;2023-02-15T03:16:00;45.80;;;26.80;;
36475;SDS011;56615;42.682;23.364;2023-02-15T03:18:47;43.15;;;26.52;;
36475;SDS011;56615;42.682;23.364;2023-02-15T03:21:17;51.75;;;27.83;;
36475;SDS011;56615;42.682;23.364;2023-02-15T03:23:49;46.83;;;27.17;;
36475;SDS011;56615;42.682;23.364;2023-02-15T03:26:24;43.60;;;26.17;;
36475;SDS011;56615;42.682;23.364;2023-02-15T03:28:50;45.55;;;27.23;;
36475;SDS011;56615;42.682;23.364;2023-02-15T03:31:19;45.53;;;27.17;;
36475;SDS011;56615;42.682;23.364;2023-02-15T03:33:49;43.53;;;26.52;;
36475;SDS011;56615;42.682;23.364;2023-02-15T03:36:23;43.97;;;26.23;;
36475;SDS011;56615;42.682;23.364;2023-02-15T03:39:12;44.25;;;26.90;;
36475;SDS011;56615;42.682;23.364;2023-02-15T03:41:42;43.17;;;26.45;;
36475;SDS011;56615;42.682;23.364;2023-02-15T03:44:35;44.55;;;26.88;;
36475;SDS011;56615;42.682;23.364;2023-02-15T03:47:06;44.65;;;26.15;;
36475;SDS011;56615;42.682;23.364;2023-02-15T03:52:11;44.00;;;26.80;;
36475;SDS011;56615;42.682;23.364;2023-02-15T03:54:39;44.22;;;26.42;;
36475;SDS011;56615;42.682;23.364;2023-02-15T03:57:25;41.42;;;25.95;;
36475;SDS011;56615;42.682;23.364;2023-02-15T04:00:21;43.43;;;26.53;;
36475;SDS011;56615;42.682;23.364;2023-02-15T04:05:43;44.72;;;26.67;;
36475;SDS011;56615;42.682;23.364;2023-02-15T04:08:14;42.80;;;26.02;;
36475;SDS011;56615;42.682;23.364;2023-02-15T04:10:40;42.45;;;25.52;;
36475;SDS011;56615;42.682;23.364;2023-02-15T04:13:22;43.45;;;26.30;;
36475;SDS011;56615;42.682;23.364;2023-02-15T04:15:48;43.60;;;27.20;;
36475;SDS011;56615;42.682;23.364;2023-02-15T04:18:33;45.45;;;26.55;;
36475;SDS011;56615;42.682;23.364;2023-02-15T04:21:20;41.25;;;25.55;;
36475;SDS011;56615;42.682;23.364;2023-02-15T04:24:04;45.25;;;25.00;;
36475;SDS011;56615;42.682;23.364;2023-02-15T04:26:48;42.38;;;25.45;;
36475;SDS011;56615;42.682;23.364;2023-02-15T04:29:17;44.03;;;26.30;;
36475;SDS011;56615;42.682;23.364;2023-02-15T04:31:43;41.90;;;25.02;;
36475;SDS011;56615;42.682;23.364;2023-02-15T04:34:09;43.08;;;24.98;;
36475;SDS011;56615;42.682;23.364;2023-02-15T04:36:35;47.47;;;25.50;;
36475;SDS011;56615;42.682;23.364;2023-02-15T04:39:02;44.42;;;25.90;;
36475;SDS011;56615;42.682;23.364;2023-02-15T04:41:27;43.53;;;26.92;;
36475;SDS011;56615;42.682;23.364;2023-02-15T04:43:53;42.17;;;26.23;;
36475;SDS011;56615;42.682;23.364;2023-02-15T04:46:18;42.20;;;25.45;;
36475;SDS011;56615;42.682;23.364;2023-02-15T04:48:44;43.35;;;26.42;;
36475;SDS011;56615;42.682;23.364;2023-02-15T04:51:09;43.28;;;25.45;;
36475;SDS011;56615;42.682;23.364;2023-02-15T04:53:35;44.10;;;26.35;;
36475;SDS011;56615;42.682;23.364;2023-02-15T04:56:00;44.97;;;26.45;;
36475;SDS011;56615;42.682;23.364;2023-02-15T04:58:26;44.60;;;26.50;;
36475;SDS011;56615;42.682;23.364;2023-02-15T05:00:54;42.20;;;26.33;;
36475;SDS011;56615;42.682;23.364;2023-02-15T05:03:20;40.60;;;25.10;;
36475;SDS011;56615;42.682;23.364;2023-02-15T05:05:45;43.33;;;26.88;;
36475;SDS011;56615;42.682;23.364;2023-02-15T05:08:12;42.00;;;26.50;;
36475;SDS011;56615;42.682;23.364;2023-02-15T05:10:38;45.03;;;26.73;;
36475;SDS011;56615;42.682;23.364;2023-02-15T05:13:03;40.67;;;25.65;;
36475;SDS011;56615;42.682;23.364;2023-02-15T05:15:29;41.38;;;25.52;;
36475;SDS011;56615;42.682;23.364;2023-02-15T05:17:54;43.42;;;26.02;;
36475;SDS011;56615;42.682;23.364;2023-02-15T05:20:19;45.10;;;26.95;;
36475;SDS011;56615;42.682;23.364;2023-02-15T05:22:45;44.85;;;26.70;;
36475;SDS011;56615;42.682;23.364;2023-02-15T05:25:10;43.05;;;26.60;;
36475;SDS011;56615;42.682;23.364;2023-02-15T05:27:54;41.95;;;25.83;;
36475;SDS011;56615;42.682;23.364;2023-02-15T05:30:38;42.10;;;26.42;;
36475;SDS011;56615;42.682;23.364;2023-02-15T05:33:04;42.85;;;26.77;;
36475;SDS011;56615;42.682;23.364;2023-02-15T05:35:33;44.20;;;26.58;;
36475;SDS011;56615;42.682;23.364;2023-02-15T05:37:59;45.13;;;26.52;;
36475;SDS011;56615;42.682;23.364;2023-02-15T05:40:25;45.00;;;26.33;;
36475;SDS011;56615;42.682;23.364;2023-02-15T05:42:50;46.10;;;26.08;;
36475;SDS011;56615;42.682;23.364;2023-02-15T05:45:16;42.35;;;25.35;;
36475;SDS011;56615;42.682;23.364;2023-02-15T05:47:41;42.83;;;26.05;;
36475;SDS011;56615;42.682;23.364;2023-02-15T05:50:07;43.88;;;25.85;;
36475;SDS011;56615;42.682;23.364;2023-02-15T05:52:33;40.25;;;25.45;;
36475;SDS011;56615;42.682;23.364;2023-02-15T05:54:59;41.90;;;25.40;;
36475;SDS011;56615;42.682;23.364;2023-02-15T05:57:25;42.03;;;25.63;;
36475;SDS011;56615;42.682;23.364;2023-02-15T05:59:52;43.58;;;25.85;;
36475;SDS011;56615;42.682;23.364;2023-02-15T06:02:17;43.88;;;25.80;;
36475;SDS011;56615;42.682;23.364;2023-02-15T06:04:43;42.95;;;25.30;;
36475;SDS011;56615;42.682;23.364;2023-02-15T06:07:08;40.45;;;25.58;;
36475;SDS011;56615;42.682;23.364;2023-02-15T06:09:33;40.53;;;25.05;;
36475;SDS011;56615;42.682;23.364;2023-02-15T06:11:59;46.80;;;27.20;;
36475;SDS011;56615;42.682;23.364;2023-02-15T06:14:24;42.78;;;25.90;;
36475;SDS011;56615;42.682;23.364;2023-02-15T06:16:49;41.08;;;25.55;;
36475;SDS011;56615;42.682;23.364;2023-02-15T06:19:15;43.58;;;25.73;;
36475;SDS011;56615;42.682;23.364;2023-02-15T06:21:40;44.92;;;25.40;;
36475;SDS011;56615;42.682;23.364;2023-02-15T06:24:07;41.17;;;25.08;;
36475;SDS011;56615;42.682;23.364;2023-02-15T06:26:33;41.45;;;25.55;;
36475;SDS011;56615;42.682;23.364;2023-02-15T06:28:59;49.25;;;31.10;;
36475;SDS011;56615;42.682;23.364;2023-02-15T06:31:27;123.38;;;73.20;;
36475;SDS011;56615;42.682;23.364;2023-02-15T06:33:52;87.15;;;53.03;;
36475;SDS011;56615;42.682;23.364;2023-02-15T06:36:25;80.30;;;45.60;;
36475;SDS011;56615;42.682;23.364;2023-02-15T06:38:51;61.00;;;35.45;;
36475;SDS011;56615;42.682;23.364;2023-02-15T06:41:16;77.13;;;49.50;;
36475;SDS011;56615;42.682;23.364;2023-02-15T06:43:42;49.20;;;30.65;;
36475;SDS011;56615;42.682;23.364;2023-02-15T06:46:08;41.33;;;25.20;;
36475;SDS011;56615;42.682;23.364;2023-02-15T06:48:34;40.20;;;24.50;;
36475;SDS011;56615;42.682;23.364;2023-02-15T06:51:00;38.20;;;24.20;;
36475;SDS011;56615;42.682;23.364;2023-02-15T06:53:25;41.42;;;25.38;;
36475;SDS011;56615;42.682;23.364;2023-02-15T06:55:51;38.28;;;24.17;;
36475;SDS011;56615;42.682;23.364;2023-02-15T06:58:16;41.22;;;25.45;;
36475;SDS011;56615;42.682;23.364;2023-02-15T07:00:41;42.13;;;24.67;;
36475;SDS011;56615;42.682;23.364;2023-02-15T07:03:07;39.22;;;24.50;;
36475;SDS011;56615;42.682;23.364;2023-02-15T07:05:33;42.38;;;24.63;;
36475;SDS011;56615;42.682;23.364;2023-02-15T07:07:59;44.67;;;25.50;;
36475;SDS011;56615;42.682;23.364;2023-02-15T07:10:25;38.38;;;24.13;;
36475;SDS011;56615;42.682;23.364;2023-02-15T07:12:51;35.65;;;22.67;;
36475;SDS011;56615;42.682;23.364;2023-02-15T07:15:17;36.25;;;23.08;;
36475;SDS011;56615;42.682;23.364;2023-02-15T07:17:46;38.03;;;22.88;;
36475;SDS011;56615;42.682;23.364;2023-02-15T07:20:14;39.50;;;22.90;;
36475;SDS011;56615;42.682;23.364;2023-02-15T07:22:41;36.97;;;21.70;;
36475;SDS011;56615;42.682;23.364;2023-02-15T07:25:09;36.33;;;22.27;;
36475;SDS011;56615;42.682;23.364;2023-02-15T07:27:35;37.30;;;21.85;;
36475;SDS011;56615;42.682;23.364;2023-02-15T07:30:01;36.33;;;22.85;;
36475;SDS011;56615;42.682;23.364;2023-02-15T07:32:27;34.90;;;22.02;;
36475;SDS011;56615;42.682;23.364;2023-02-15T07:34:54;34.70;;;22.83;;
36475;SDS011;56615;42.682;23.364;2023-02-15T07:37:19;33.92;;;21.23;;
36475;SDS011;56615;42.682;23.364;2023-02-15T07:39:45;35.88;;;21.83;;
36475;SDS011;56615;42.682;23.364;2023-02-15T07:42:10;36.45;;;22.77;;
36475;SDS011;56615;42.682;23.364;2023-02-15T07:44:35;34.42;;;20.77;;
36475;SDS011;56615;42.682;23.364;2023-02-15T07:47:01;33.75;;;20.02;;
36475;SDS011;56615;42.682;23.364;2023-02-15T07:49:26;32.88;;;20.38;;
36475;SDS011;56615;42.682;23.364;2023-02-15T07:51:52;32.92;;;20.67;;
36475;SDS011;56615;42.682;23.364;2023-02-15T07:54:17;35.65;;;20.15;;
36475;SDS011;56615;42.682;23.364;2023-02-15T07:56:42;32.67;;;20.60;;
36475;SDS011;56615;42.682;23.364;2023-02-15T07:59:08;32.67;;;20.30;;
36475;SDS011;56615;42.682;23.364;2023-02-15T08:01:35;32.25;;;20.23;;
36475;SDS011;56615;42.682;23.364;2023-02-15T08:04:01;31.25;;;19.42;;
36475;SDS011;56615;42.682;23.364;2023-02-15T08:06:29;33.60;;;21.05;;
36475;SDS011;56615;42.682;23.364;2023-02-15T08:08:56;32.00;;;20.42;;
36475;SDS011;56615;42.682;23.364;2023-02-15T08:11:23;31.60;;;19.08;;
36475;SDS011;56615;42.682;23.364;2023-02-15T08:19:20;30.70;;;20.05;;
36475;SDS011;56615;42.682;23.364;2023-02-15T08:21:47;33.72;;;20.30;;
36475;SDS011;56615;42.682;23.364;2023-02-15T08:24:17;32.78;;;20.88;;
36475;SDS011;56615;42.682;23.364;2023-02-15T08:26:44;36.20;;;20.30;;
36475;SDS011;56615;42.682;23.364;2023-02-15T08:29:11;37.05;;;21.73;;
36475;SDS011;56615;42.682;23.364;2023-02-15T08:31:37;35.00;;;21.67;;
36475;SDS011;56615;42.682;23.364;2023-02-15T08:34:05;33.05;;;20.55;;
36475;SDS011;56615;42.682;23.364;2023-02-15T08:36:31;32.08;;;19.80;;
36475;SDS011;56615;42.682;23.364;2023-02-15T08:38:57;30.83;;;19.20;;
36475;SDS011;56615;42.682;23.364;2023-02-15T08:41:24;37.17;;;22.20;;
36475;SDS011;56615;42.682;23.364;2023-02-15T08:43:52;43.97;;;26.67;;
36475;SDS011;56615;42.682;23.364;2023-02-15T08:46:19;48.65;;;32.72;;
36475;SDS011;56615;42.682;23.364;2023-02-15T08:48:44;43.08;;;26.55;;
36475;SDS011;56615;42.682;23.364;2023-02-15T08:51:17;35.85;;;21.85;;
36475;SDS011;56615;42.682;23.364;2023-02-15T08:53:45;33.50;;;21.38;;
36475;SDS011;56615;42.682;23.364;2023-02-15T08:56:14;35.88;;;22.25;;
36475;SDS011;56615;42.682;23.364;2023-02-15T08:58:39;31.30;;;20.05;;
36475;SDS011;56615;42.682;23.364;2023-02-15T09:01:15;31.90;;;20.73;;
36475;SDS011;56615;42.682;23.364;2023-02-15T09:03:43;29.55;;;18.13;;
36475;SDS011;56615;42.682;23.364;2023-02-15T09:06:10;34.85;;;19.77;;
36475;SDS011;56615;42.682;23.364;2023-02-15T09:08:36;34.72;;;20.95;;
36475;SDS011;56615;42.682;23.364;2023-02-15T09:11:08;34.13;;;21.48;;
36475;SDS011;56615;42.682;23.364;2023-02-15T09:13:38;30.42;;;17.73;;
36475;SDS011;56615;42.682;23.364;2023-02-15T09:16:04;33.90;;;18.92;;
36475;SDS011;56615;42.682;23.364;2023-02-15T09:18:32;30.60;;;17.50;;
36475;SDS011;56615;42.682;23.364;2023-02-15T09:21:07;27.58;;;16.98;;
36475;SDS011;56615;42.682;23.364;2023-02-15T09:23:35;27.80;;;17.33;;
36475;SDS011;56615;42.682;23.364;2023-02-15T09:26:04;30.02;;;17.98;;
36475;SDS011;56615;42.682;23.364;2023-02-15T09:28:31;29.00;;;18.33;;
36475;SDS011;56615;42.682;23.364;2023-02-15T09:31:04;27.77;;;19.10;;
36475;SDS011;56615;42.682;23.364;2023-02-15T09:33:36;29.45;;;17.50;;
36475;SDS011;56615;42.682;23.364;2023-02-15T09:36:02;28.65;;;17.80;;
36475;SDS011;56615;42.682;23.364;2023-02-15T09:38:28;26.83;;;18.33;;
36475;SDS011;56615;42.682;23.364;2023-02-15T09:41:14;26.95;;;17.73;;
36475;SDS011;56615;42.682;23.364;2023-02-15T09:52:17;26.80;;;17.70;;
36475;SDS011;56615;42.682;23.364;2023-02-15T09:55:04;27.85;;;17.70;;
36475;SDS011;56615;42.682;23.364;2023-02-15T09:57:40;29.27;;;18.98;;
36475;SDS011;56615;42.682;23.364;2023-02-15T10:06:29;29.38;;;17.95;;
36475;SDS011;56615;42.682;23.364;2023-02-15T10:09:09;28.70;;;18.00;;
36475;SDS011;56615;42.682;23.364;2023-02-15T10:20:00;27.67;;;17.77;;
36475;SDS011;56615;42.682;23.364;2023-02-15T10:25:24;29.25;;;18.63;;
36475;SDS011;56615;42.682;23.364;2023-02-15T10:28:09;29.15;;;18.60;;
36475;SDS011;56615;42.682;23.364;2023-02-15T10:30:51;29.05;;;18.70;;
36475;SDS011;56615;42.682;23.364;2023-02-15T10:39:02;29.30;;;19.15;;
36475;SDS011;56615;42.682;23.364;2023-02-15T10:41:48;27.45;;;18.00;;
36475;SDS011;56615;42.682;23.364;2023-02-15T11:03:50;30.58;;;19.90;;
36475;SDS011;56615;42.682;23.364;2023-02-15T11:06:29;29.73;;;18.90;;
36475;SDS011;56615;42.682;23.364;2023-02-15T11:08:57;27.83;;;19.13;;
36475;SDS011;56615;42.682;23.364;2023-02-15T11:11:27;35.75;;;21.05;;
36475;SDS011;56615;42.682;23.364;2023-02-15T11:13:59;33.30;;;20.58;;
36475;SDS011;56615;42.682;23.364;2023-02-15T11:16:29;31.40;;;19.33;;
36475;SDS011;56615;42.682;23.364;2023-02-15T11:18:58;33.10;;;21.08;;
36475;SDS011;56615;42.682;23.364;2023-02-15T11:24:09;33.47;;;19.63;;
36475;SDS011;56615;42.682;23.364;2023-02-15T11:26:46;33.55;;;21.10;;
36475;SDS011;56615;42.682;23.364;2023-02-15T11:29:26;33.88;;;21.50;;
36475;SDS011;56615;42.682;23.364;2023-02-15T11:32:17;34.85;;;21.20;;
36475;SDS011;56615;42.682;23.364;2023-02-15T11:34:56;33.47;;;19.60;;
36475;SDS011;56615;42.682;23.364;2023-02-15T11:40:36;32.08;;;20.23;;
36475;SDS011;56615;42.682;23.364;2023-02-15T11:43:23;30.42;;;19.95;;
36475;SDS011;56615;42.682;23.364;2023-02-15T11:45:54;32.67;;;20.85;;
36475;SDS011;56615;42.682;23.364;2023-02-15T11:48:19;35.22;;;21.80;;
36475;SDS011;56615;42.682;23.364;2023-02-15T11:50:45;34.28;;;20.55;;
36475;SDS011;56615;42.682;23.364;2023-02-15T11:53:15;31.38;;;20.35;;
36475;SDS011;56615;42.682;23.364;2023-02-15T11:55:43;29.77;;;19.63;;
36475;SDS011;56615;42.682;23.364;2023-02-15T11:58:14;32.50;;;21.02;;
36475;SDS011;56615;42.682;23.364;2023-02-15T12:00:47;33.45;;;20.20;;
36475;SDS011;56615;42.682;23.364;2023-02-15T12:03:26;32.55;;;20.38;;
36475;SDS011;56615;42.682;23.364;2023-02-15T12:06:00;32.70;;;20.20;;
36475;SDS011;56615;42.682;23.364;2023-02-15T12:08:30;31.48;;;20.38;;
36475;SDS011;56615;42.682;23.364;2023-02-15T12:11:09;30.92;;;20.27;;
36475;SDS011;56615;42.682;23.364;2023-02-15T12:13:55;32.72;;;20.48;;
36475;SDS011;56615;42.682;23.364;2023-02-15T12:16:21;32.28;;;20.98;;
36475;SDS011;56615;42.682;23.364;2023-02-15T12:18:47;34.60;;;21.15;;
36475;SDS011;56615;42.682;23.364;2023-02-15T12:21:23;31.40;;;20.02;;
36475;SDS011;56615;42.682;23.364;2023-02-15T12:23:51;33.05;;;20.77;;
36475;SDS011;56615;42.682;23.364;2023-02-15T12:26:31;34.63;;;21.83;;
36475;SDS011;56615;42.682;23.364;2023-02-15T12:29:21;36.00;;;22.60;;
36475;SDS011;56615;42.682;23.364;2023-02-15T12:31:46;33.05;;;21.40;;
36475;SDS011;56615;42.682;23.364;2023-02-15T12:34:25;30.42;;;20.20;;
36475;SDS011;56615;42.682;23.364;2023-02-15T12:36:54;34.40;;;20.33;;
36475;SDS011;56615;42.682;23.364;2023-02-15T12:39:25;34.20;;;21.13;;
36475;SDS011;56615;42.682;23.364;2023-02-15T12:44:25;34.33;;;21.13;;
36475;SDS011;56615;42.682;23.364;2023-02-15T12:49:30;31.83;;;20.38;;
36475;SDS011;56615;42.682;23.364;2023-02-15T12:52:03;31.58;;;20.65;;
36475;SDS011;56615;42.682;23.364;2023-02-15T12:54:42;32.15;;;20.63;;
36475;SDS011;56615;42.682;23.364;2023-02-15T13:00:04;31.92;;;19.70;;
36475;SDS011;56615;42.682;23.364;2023-02-15T13:02:52;30.77;;;20.13;;
36475;SDS011;56615;42.682;23.364;2023-02-15T13:07:50;35.10;;;20.90;;
36475;SDS011;56615;42.682;23.364;2023-02-15T13:10:29;29.08;;;19.70;;
36475;SDS011;56615;42.682;23.364;2023-02-15T13:12:57;33.97;;;21.05;;
36475;SDS011;56615;42.682;23.364;2023-02-15T13:15:23;31.23;;;20.70;;
36475;SDS011;56615;42.682;23.364;2023-02-15T13:17:55;33.85;;;20.70;;
36475;SDS011;56615;42.682;23.364;2023-02-15T13:20:21;33.72;;;20.90;;
36475;SDS011;56615;42.682;23.364;2023-02-15T13:22:52;33.40;;;20.58;;
36475;SDS011;56615;42.682;23.364;2023-02-15T13:25:23;32.17;;;20.77;;
36475;SDS011;56615;42.682;23.364;2023-02-15T13:27:54;31.60;;;20.27;;
36475;SDS011;56615;42.682;23.364;2023-02-15T13:32:48;30.80;;;20.48;;
36475;SDS011;56615;42.682;23.364;2023-02-15T13:35:16;34.95;;;21.10;;
36475;SDS011;56615;42.682;23.364;2023-02-15T13:37:45;33.13;;;20.65;;
36475;SDS011;56615;42.682;23.364;2023-02-15T13:40:35;34.30;;;20.70;;
36475;SDS011;56615;42.682;23.364;2023-02-15T13:43:13;31.70;;;20.42;;
36475;SDS011;56615;42.682;23.364;2023-02-15T13:46:14;32.65;;;21.13;;
36475;SDS011;56615;42.682;23.364;2023-02-15T13:49:32;34.05;;;20.98;;
36475;SDS011;56615;42.682;23.364;2023-02-15T13:51:41;30.58;;;20.15;;
36475;SDS011;56615;42.682;23.364;2023-02-15T14:13:25;31.77;;;21.27;;
36475;SDS011;56615;42.682;23.364;2023-02-15T14:16:03;35.70;;;20.98;;
36475;SDS011;56615;42.682;23.364;2023-02-15T14:18:40;34.70;;;21.52;;
36475;SDS011;56615;42.682;23.364;2023-02-15T14:21:29;34.75;;;22.63;;
36475;SDS011;56615;42.682;23.364;2023-02-15T14:32:30;33.03;;;21.63;;
36475;SDS011;56615;42.682;23.364;2023-02-15T14:35:24;37.50;;;23.80;;
36475;SDS011;56615;42.682;23.364;2023-02-15T14:37:58;34.45;;;22.30;;
36475;SDS011;56615;42.682;23.364;2023-02-15T14:46:40;33.80;;;22.17;;
36475;SDS011;56615;42.682;23.364;2023-02-15T14:49:26;34.63;;;22.13;;
36475;SDS011;56615;42.682;23.364;2023-02-15T14:51:55;34.30;;;22.58;;
36475;SDS011;56615;42.682;23.364;2023-02-15T15:02:21;36.35;;;23.25;;
36475;SDS011;56615;42.682;23.364;2023-02-15T15:08:19;38.53;;;23.40;;
36475;SDS011;56615;42.682;23.364;2023-02-15T15:12:44;37.47;;;22.90;;
36475;SDS011;56615;42.682;23.364;2023-02-15T15:15:11;35.42;;;21.35;;
36475;SDS011;56615;42.682;23.364;2023-02-15T15:17:56;32.70;;;21.52;;
36475;SDS011;56615;42.682;23.364;2023-02-15T15:20:45;30.20;;;20.90;;
36475;SDS011;56615;42.682;23.364;2023-02-15T15:33:55;38.80;;;22.95;;
36475;SDS011;56615;42.682;23.364;2023-02-15T15:45:02;36.10;;;22.55;;
36475;SDS011;56615;42.682;23.364;2023-02-15T15:50:17;35.10;;;22.38;;
36475;SDS011;56615;42.682;23.364;2023-02-15T15:52:46;39.00;;;24.15;;
36475;SDS011;56615;42.682;23.364;2023-02-15T15:55:22;39.80;;;23.52;;
36475;SDS011;56615;42.682;23.364;2023-02-15T15:58:04;38.42;;;23.30;;
36475;SDS011;56615;42.682;23.364;2023-02-15T16:03:00;38.33;;;23.88;;
36475;SDS011;56615;42.682;23.364;2023-02-15T16:05:26;39.03;;;23.70;;
36475;SDS011;56615;42.682;23.364;2023-02-15T16:07:51;41.10;;;23.42;;
36475;SDS011;56615;42.682;23.364;2023-02-15T16:10:27;36.47;;;23.58;;
36475;SDS011;56615;42.682;23.364;2023-02-15T16:12:54;40.38;;;24.40;;
36475;SDS011;56615;42.682;23.364;2023-02-15T16:15:23;38.92;;;23.65;;
36475;SDS011;56615;42.682;23.364;2023-02-15T16:17:57;38.50;;;24.05;;
36475;SDS011;56615;42.682;23.364;2023-02-15T16:26:00;40.28;;;24.30;;
36475;SDS011;56615;42.682;23.364;2023-02-15T16:28:38;38.65;;;23.90;;
36475;SDS011;56615;42.682;23.364;2023-02-15T16:31:05;39.50;;;24.30;;
36475;SDS011;56615;42.682;23.364;2023-02-15T16:33:38;38.58;;;23.92;;
36475;SDS011;56615;42.682;23.364;2023-02-15T16:36:05;44.20;;;24.23;;
36475;SDS011;56615;42.682;23.364;2023-02-15T16:41:07;41.58;;;24.55;;
36475;SDS011;56615;42.682;23.364;2023-02-15T16:43:34;38.33;;;23.77;;
36475;SDS011;56615;42.682;23.364;2023-02-15T16:46:03;39.00;;;23.98;;
36475;SDS011;56615;42.682;23.364;2023-02-15T16:48:34;39.92;;;24.27;;
36475;SDS011;56615;42.682;23.364;2023-02-15T16:51:04;40.92;;;25.30;;
36475;SDS011;56615;42.682;23.364;2023-02-15T16:53:30;42.17;;;25.70;;
36475;SDS011;56615;42.682;23.364;2023-02-15T16:55:59;42.13;;;25.50;;
36475;SDS011;56615;42.682;23.364;2023-02-15T16:58:27;40.67;;;25.40;;
36475;SDS011;56615;42.682;23.364;2023-02-15T17:00:57;43.75;;;25.83;;
36475;SDS011;56615;42.682;23.364;2023-02-15T17:03:24;45.05;;;26.08;;
36475;SDS011;56615;42.682;23.364;2023-02-15T17:05:56;51.70;;;32.47;;
36475;SDS011;56615;42.682;23.364;2023-02-15T17:08:25;76.07;;;47.30;;
36475;SDS011;56615;42.682;23.364;2023-02-15T17:11:04;92.85;;;61.53;;
36475;SDS011;56615;42.682;23.364;2023-02-15T17:13:36;62.15;;;40.92;;
36475;SDS011;56615;42.682;23.364;2023-02-15T17:18:30;46.50;;;29.00;;
36475;SDS011;56615;42.682;23.364;2023-02-15T17:20:58;43.88;;;27.70;;
36475;SDS011;56615;42.682;23.364;2023-02-15T17:23:32;41.22;;;26.27;;
36475;SDS011;56615;42.682;23.364;2023-02-15T17:26:00;45.22;;;28.83;;
36475;SDS011;56615;42.682;23.364;2023-02-15T17:28:28;43.85;;;29.00;;
36475;SDS011;56615;42.682;23.364;2023-02-15T17:30:56;44.80;;;28.95;;
36475;SDS011;56615;42.682;23.364;2023-02-15T17:33:41;49.50;;;30.67;;
36475;SDS011;56615;42.682;23.364;2023-02-15T17:38:59;51.40;;;28.83;;